sensor_id;sensor_type;location;lat;lon;timestamp;P1;durP1;ratioP1;P2;durP2;ratioP2
74512;SDS011;62992;52.052;8.550;2022-12-17T00:02:06;43.92;;;23.30;;
74512;SDS011;62992;52.052;8.550;2022-12-17T00:05:09;43.15;;;22.25;;
74512;SDS011;62992;52.052;8.550;2022-12-17T00:08:11;42.78;;;23.42;;
74512;SDS011;62992;52.052;8.550;2022-12-17T00:11:15;45.70;;;23.73;;
74512;SDS011;62992;52.052;8.550;2022-12-17T00:14:18;47.53;;;22.65;;
74512;SDS011;62992;52.052;8.550;2022-12-17T00:17:21;44.72;;;24.02;;
74512;SDS011;62992;52.052;8.550;2022-12-17T00:20:24;48.42;;;24.65;;
74512;SDS011;62992;52.052;8.550;2022-12-17T00:23:27;45.97;;;24.40;;
74512;SDS011;62992;52.052;8.550;2022-12-17T00:26:30;48.40;;;23.63;;
74512;SDS011;62992;52.052;8.550;2022-12-17T00:29:34;44.95;;;23.77;;
74512;SDS011;62992;52.052;8.550;2022-12-17T00:32:37;43.55;;;23.98;;
74512;SDS011;62992;52.052;8.550;2022-12-17T00:35:40;54.97;;;25.90;;
74512;SDS011;62992;52.052;8.550;2022-12-17T00:38:43;45.75;;;22.27;;
74512;SDS011;62992;52.052;8.550;2022-12-17T00:41:47;39.05;;;20.45;;
74512;SDS011;62992;52.052;8.550;2022-12-17T00:44:50;53.40;;;22.50;;
74512;SDS011;62992;52.052;8.550;2022-12-17T00:47:53;38.78;;;20.98;;
74512;SDS011;62992;52.052;8.550;2022-12-17T00:50:56;45.30;;;20.58;;
74512;SDS011;62992;52.052;8.550;2022-12-17T00:54:15;42.17;;;22.15;;
74512;SDS011;62992;52.052;8.550;2022-12-17T00:57:18;41.17;;;21.17;;
74512;SDS011;62992;52.052;8.550;2022-12-17T01:00:21;41.15;;;20.17;;
74512;SDS011;62992;52.052;8.550;2022-12-17T01:03:24;37.28;;;20.65;;
74512;SDS011;62992;52.052;8.550;2022-12-17T01:06:28;54.15;;;23.52;;
74512;SDS011;62992;52.052;8.550;2022-12-17T01:09:31;31.10;;;17.67;;
74512;SDS011;62992;52.052;8.550;2022-12-17T01:12:34;24.95;;;13.73;;
74512;SDS011;62992;52.052;8.550;2022-12-17T01:15:37;21.50;;;12.50;;
74512;SDS011;62992;52.052;8.550;2022-12-17T01:18:40;19.75;;;11.10;;
74512;SDS011;62992;52.052;8.550;2022-12-17T01:21:43;30.27;;;14.93;;
74512;SDS011;62992;52.052;8.550;2022-12-17T01:24:47;35.90;;;19.40;;
74512;SDS011;62992;52.052;8.550;2022-12-17T01:27:50;42.55;;;22.85;;
74512;SDS011;62992;52.052;8.550;2022-12-17T01:30:56;39.67;;;22.23;;
74512;SDS011;62992;52.052;8.550;2022-12-17T01:33:59;39.80;;;22.27;;
74512;SDS011;62992;52.052;8.550;2022-12-17T01:37:02;40.40;;;21.60;;
74512;SDS011;62992;52.052;8.550;2022-12-17T01:40:05;38.75;;;21.27;;
74512;SDS011;62992;52.052;8.550;2022-12-17T01:43:11;46.10;;;21.90;;
74512;SDS011;62992;52.052;8.550;2022-12-17T01:46:14;40.80;;;22.02;;
74512;SDS011;62992;52.052;8.550;2022-12-17T01:49:18;33.58;;;20.50;;
74512;SDS011;62992;52.052;8.550;2022-12-17T01:52:24;38.35;;;20.05;;
74512;SDS011;62992;52.052;8.550;2022-12-17T01:55:26;35.03;;;17.75;;
74512;SDS011;62992;52.052;8.550;2022-12-17T01:58:29;42.80;;;20.45;;
74512;SDS011;62992;52.052;8.550;2022-12-17T02:01:32;48.85;;;23.20;;
74512;SDS011;62992;52.052;8.550;2022-12-17T02:04:35;50.53;;;22.83;;
74512;SDS011;62992;52.052;8.550;2022-12-17T02:11:04;49.20;;;21.30;;
74512;SDS011;62992;52.052;8.550;2022-12-17T02:14:39;40.80;;;20.35;;
74512;SDS011;62992;52.052;8.550;2022-12-17T02:17:50;37.03;;;17.35;;
74512;SDS011;62992;52.052;8.550;2022-12-17T02:20:57;38.25;;;19.35;;
74512;SDS011;62992;52.052;8.550;2022-12-17T02:27:11;38.25;;;18.55;;
74512;SDS011;62992;52.052;8.550;2022-12-17T02:30:14;29.17;;;16.30;;
74512;SDS011;62992;52.052;8.550;2022-12-17T02:33:18;37.95;;;19.17;;
74512;SDS011;62992;52.052;8.550;2022-12-17T02:36:22;37.33;;;20.73;;
74512;SDS011;62992;52.052;8.550;2022-12-17T02:39:25;35.47;;;18.73;;
74512;SDS011;62992;52.052;8.550;2022-12-17T02:42:28;43.83;;;21.25;;
74512;SDS011;62992;52.052;8.550;2022-12-17T02:45:32;38.75;;;18.77;;
74512;SDS011;62992;52.052;8.550;2022-12-17T02:48:36;35.55;;;19.83;;
74512;SDS011;62992;52.052;8.550;2022-12-17T02:51:39;40.15;;;20.33;;
74512;SDS011;62992;52.052;8.550;2022-12-17T02:54:44;33.58;;;19.13;;
74512;SDS011;62992;52.052;8.550;2022-12-17T02:57:46;37.45;;;17.83;;
74512;SDS011;62992;52.052;8.550;2022-12-17T03:00:49;34.95;;;18.33;;
74512;SDS011;62992;52.052;8.550;2022-12-17T03:03:52;28.88;;;17.77;;
74512;SDS011;62992;52.052;8.550;2022-12-17T03:06:55;38.80;;;19.05;;
74512;SDS011;62992;52.052;8.550;2022-12-17T03:09:58;30.05;;;15.68;;
74512;SDS011;62992;52.052;8.550;2022-12-17T03:13:01;29.40;;;16.17;;
74512;SDS011;62992;52.052;8.550;2022-12-17T03:16:08;27.50;;;17.65;;
74512;SDS011;62992;52.052;8.550;2022-12-17T03:19:12;26.52;;;14.73;;
74512;SDS011;62992;52.052;8.550;2022-12-17T03:22:15;30.33;;;15.95;;
74512;SDS011;62992;52.052;8.550;2022-12-17T03:25:18;23.45;;;14.10;;
74512;SDS011;62992;52.052;8.550;2022-12-17T03:28:21;29.27;;;15.20;;
74512;SDS011;62992;52.052;8.550;2022-12-17T03:31:24;29.67;;;14.75;;
74512;SDS011;62992;52.052;8.550;2022-12-17T03:34:27;22.95;;;12.55;;
74512;SDS011;62992;52.052;8.550;2022-12-17T03:37:30;28.27;;;14.88;;
74512;SDS011;62992;52.052;8.550;2022-12-17T03:40:33;27.05;;;14.80;;
74512;SDS011;62992;52.052;8.550;2022-12-17T03:43:36;17.35;;;11.77;;
74512;SDS011;62992;52.052;8.550;2022-12-17T03:46:39;23.20;;;14.40;;
74512;SDS011;62992;52.052;8.550;2022-12-17T03:49:42;25.63;;;14.30;;
74512;SDS011;62992;52.052;8.550;2022-12-17T03:52:45;27.23;;;15.68;;
74512;SDS011;62992;52.052;8.550;2022-12-17T03:55:48;29.73;;;16.23;;
74512;SDS011;62992;52.052;8.550;2022-12-17T03:58:51;26.48;;;13.68;;
74512;SDS011;62992;52.052;8.550;2022-12-17T04:01:54;24.38;;;14.73;;
74512;SDS011;62992;52.052;8.550;2022-12-17T04:04:57;22.23;;;13.27;;
74512;SDS011;62992;52.052;8.550;2022-12-17T04:08:00;26.25;;;14.05;;
74512;SDS011;62992;52.052;8.550;2022-12-17T04:11:03;29.35;;;14.32;;
74512;SDS011;62992;52.052;8.550;2022-12-17T04:14:06;22.98;;;13.85;;
74512;SDS011;62992;52.052;8.550;2022-12-17T04:17:09;25.58;;;14.18;;
74512;SDS011;62992;52.052;8.550;2022-12-17T04:20:12;21.98;;;12.93;;
74512;SDS011;62992;52.052;8.550;2022-12-17T04:23:15;27.83;;;13.93;;
74512;SDS011;62992;52.052;8.550;2022-12-17T04:26:17;29.88;;;15.13;;
74512;SDS011;62992;52.052;8.550;2022-12-17T04:29:20;28.33;;;16.88;;
74512;SDS011;62992;52.052;8.550;2022-12-17T04:32:23;31.25;;;16.73;;
74512;SDS011;62992;52.052;8.550;2022-12-17T04:35:26;32.88;;;16.40;;
74512;SDS011;62992;52.052;8.550;2022-12-17T04:38:29;28.23;;;15.35;;
74512;SDS011;62992;52.052;8.550;2022-12-17T04:41:32;31.45;;;16.42;;
74512;SDS011;62992;52.052;8.550;2022-12-17T04:44:35;29.38;;;15.20;;
74512;SDS011;62992;52.052;8.550;2022-12-17T04:47:38;26.95;;;13.25;;
74512;SDS011;62992;52.052;8.550;2022-12-17T04:50:41;25.05;;;14.68;;
74512;SDS011;62992;52.052;8.550;2022-12-17T04:53:44;27.50;;;15.10;;
74512;SDS011;62992;52.052;8.550;2022-12-17T04:56:47;26.63;;;15.02;;
74512;SDS011;62992;52.052;8.550;2022-12-17T04:59:50;27.45;;;15.32;;
74512;SDS011;62992;52.052;8.550;2022-12-17T05:02:53;26.83;;;13.13;;
74512;SDS011;62992;52.052;8.550;2022-12-17T05:06:00;22.77;;;13.48;;
74512;SDS011;62992;52.052;8.550;2022-12-17T05:09:03;22.00;;;11.68;;
74512;SDS011;62992;52.052;8.550;2022-12-17T05:12:06;24.83;;;14.70;;
74512;SDS011;62992;52.052;8.550;2022-12-17T05:15:09;29.38;;;12.32;;
74512;SDS011;62992;52.052;8.550;2022-12-17T05:18:12;36.45;;;15.20;;
74512;SDS011;62992;52.052;8.550;2022-12-17T05:21:15;28.85;;;15.30;;
74512;SDS011;62992;52.052;8.550;2022-12-17T05:24:18;32.78;;;17.25;;
74512;SDS011;62992;52.052;8.550;2022-12-17T05:27:21;30.90;;;16.27;;
74512;SDS011;62992;52.052;8.550;2022-12-17T05:30:24;32.47;;;14.45;;
74512;SDS011;62992;52.052;8.550;2022-12-17T05:33:27;26.67;;;13.90;;
74512;SDS011;62992;52.052;8.550;2022-12-17T05:36:30;24.20;;;12.40;;
74512;SDS011;62992;52.052;8.550;2022-12-17T05:39:33;27.85;;;14.60;;
74512;SDS011;62992;52.052;8.550;2022-12-17T05:42:36;27.10;;;14.18;;
74512;SDS011;62992;52.052;8.550;2022-12-17T05:45:39;29.70;;;13.60;;
74512;SDS011;62992;52.052;8.550;2022-12-17T05:48:43;27.77;;;13.30;;
74512;SDS011;62992;52.052;8.550;2022-12-17T05:51:46;25.88;;;12.90;;
74512;SDS011;62992;52.052;8.550;2022-12-17T05:54:49;25.38;;;12.25;;
74512;SDS011;62992;52.052;8.550;2022-12-17T05:58:00;19.90;;;11.77;;
74512;SDS011;62992;52.052;8.550;2022-12-17T06:01:07;21.23;;;12.40;;
74512;SDS011;62992;52.052;8.550;2022-12-17T06:04:10;13.65;;;7.93;;
74512;SDS011;62992;52.052;8.550;2022-12-17T06:07:13;18.55;;;10.45;;
74512;SDS011;62992;52.052;8.550;2022-12-17T06:12:43;22.40;;;11.77;;
74512;SDS011;62992;52.052;8.550;2022-12-17T06:15:55;19.35;;;11.18;;
74512;SDS011;62992;52.052;8.550;2022-12-17T06:18:59;21.42;;;12.27;;
74512;SDS011;62992;52.052;8.550;2022-12-17T06:22:02;25.40;;;12.52;;
74512;SDS011;62992;52.052;8.550;2022-12-17T06:25:05;22.00;;;11.90;;
74512;SDS011;62992;52.052;8.550;2022-12-17T06:28:08;22.60;;;11.38;;
74512;SDS011;62992;52.052;8.550;2022-12-17T06:31:11;21.42;;;12.20;;
74512;SDS011;62992;52.052;8.550;2022-12-17T06:34:14;21.35;;;12.43;;
74512;SDS011;62992;52.052;8.550;2022-12-17T06:37:17;25.65;;;13.05;;
74512;SDS011;62992;52.052;8.550;2022-12-17T06:40:20;23.48;;;14.32;;
74512;SDS011;62992;52.052;8.550;2022-12-17T06:43:23;23.02;;;12.98;;
74512;SDS011;62992;52.052;8.550;2022-12-17T06:46:26;27.63;;;14.32;;
74512;SDS011;62992;52.052;8.550;2022-12-17T06:49:29;28.92;;;14.68;;
74512;SDS011;62992;52.052;8.550;2022-12-17T06:52:32;26.73;;;14.50;;
74512;SDS011;62992;52.052;8.550;2022-12-17T06:55:35;21.52;;;12.65;;
74512;SDS011;62992;52.052;8.550;2022-12-17T06:58:38;24.25;;;12.38;;
74512;SDS011;62992;52.052;8.550;2022-12-17T07:01:40;33.85;;;13.77;;
74512;SDS011;62992;52.052;8.550;2022-12-17T07:04:43;25.02;;;13.38;;
74512;SDS011;62992;52.052;8.550;2022-12-17T07:07:46;28.95;;;13.02;;
74512;SDS011;62992;52.052;8.550;2022-12-17T07:10:49;26.77;;;12.85;;
74512;SDS011;62992;52.052;8.550;2022-12-17T07:13:52;23.60;;;11.60;;
74512;SDS011;62992;52.052;8.550;2022-12-17T07:16:55;21.42;;;11.40;;
74512;SDS011;62992;52.052;8.550;2022-12-17T07:19:58;22.48;;;11.98;;
74512;SDS011;62992;52.052;8.550;2022-12-17T07:23:01;28.65;;;13.98;;
74512;SDS011;62992;52.052;8.550;2022-12-17T07:26:04;24.88;;;12.88;;
74512;SDS011;62992;52.052;8.550;2022-12-17T07:29:07;26.55;;;14.02;;
74512;SDS011;62992;52.052;8.550;2022-12-17T07:32:09;28.48;;;13.77;;
74512;SDS011;62992;52.052;8.550;2022-12-17T07:35:12;31.83;;;14.43;;
74512;SDS011;62992;52.052;8.550;2022-12-17T07:38:35;25.15;;;13.05;;
74512;SDS011;62992;52.052;8.550;2022-12-17T07:41:38;31.55;;;14.45;;
74512;SDS011;62992;52.052;8.550;2022-12-17T07:44:41;24.65;;;13.10;;
74512;SDS011;62992;52.052;8.550;2022-12-17T07:47:53;33.53;;;16.20;;
74512;SDS011;62992;52.052;8.550;2022-12-17T07:50:56;30.17;;;15.52;;
74512;SDS011;62992;52.052;8.550;2022-12-17T07:54:00;27.88;;;14.25;;
74512;SDS011;62992;52.052;8.550;2022-12-17T07:57:02;30.83;;;13.88;;
74512;SDS011;62992;52.052;8.550;2022-12-17T08:00:06;29.60;;;13.73;;
74512;SDS011;62992;52.052;8.550;2022-12-17T08:03:09;26.23;;;12.52;;
74512;SDS011;62992;52.052;8.550;2022-12-17T08:06:12;27.05;;;12.45;;
74512;SDS011;62992;52.052;8.550;2022-12-17T08:09:15;32.22;;;14.68;;
74512;SDS011;62992;52.052;8.550;2022-12-17T08:12:18;26.10;;;14.35;;
74512;SDS011;62992;52.052;8.550;2022-12-17T08:15:21;31.70;;;14.10;;
74512;SDS011;62992;52.052;8.550;2022-12-17T08:18:24;32.97;;;16.23;;
74512;SDS011;62992;52.052;8.550;2022-12-17T08:21:27;40.80;;;20.08;;
74512;SDS011;62992;52.052;8.550;2022-12-17T08:24:30;25.65;;;11.63;;
74512;SDS011;62992;52.052;8.550;2022-12-17T08:27:33;32.10;;;14.30;;
74512;SDS011;62992;52.052;8.550;2022-12-17T08:30:36;32.53;;;13.95;;
74512;SDS011;62992;52.052;8.550;2022-12-17T08:33:39;32.10;;;15.93;;
74512;SDS011;62992;52.052;8.550;2022-12-17T08:36:42;27.77;;;13.48;;
74512;SDS011;62992;52.052;8.550;2022-12-17T08:39:45;34.13;;;16.80;;
74512;SDS011;62992;52.052;8.550;2022-12-17T08:42:48;35.38;;;15.32;;
74512;SDS011;62992;52.052;8.550;2022-12-17T08:45:58;44.78;;;17.23;;
74512;SDS011;62992;52.052;8.550;2022-12-17T08:49:02;42.88;;;16.10;;
74512;SDS011;62992;52.052;8.550;2022-12-17T08:52:05;32.20;;;15.90;;
74512;SDS011;62992;52.052;8.550;2022-12-17T08:55:08;33.35;;;15.77;;
74512;SDS011;62992;52.052;8.550;2022-12-17T08:58:11;36.42;;;16.73;;
74512;SDS011;62992;52.052;8.550;2022-12-17T09:01:14;36.05;;;14.93;;
74512;SDS011;62992;52.052;8.550;2022-12-17T09:04:17;42.92;;;17.77;;
74512;SDS011;62992;52.052;8.550;2022-12-17T09:07:20;40.28;;;15.63;;
74512;SDS011;62992;52.052;8.550;2022-12-17T09:10:23;36.45;;;15.77;;
74512;SDS011;62992;52.052;8.550;2022-12-17T09:13:26;37.00;;;16.98;;
74512;SDS011;62992;52.052;8.550;2022-12-17T09:16:29;40.58;;;18.50;;
74512;SDS011;62992;52.052;8.550;2022-12-17T09:19:32;35.55;;;17.73;;
74512;SDS011;62992;52.052;8.550;2022-12-17T09:22:35;47.17;;;18.50;;
74512;SDS011;62992;52.052;8.550;2022-12-17T09:25:38;42.92;;;17.48;;
74512;SDS011;62992;52.052;8.550;2022-12-17T09:28:41;33.67;;;14.02;;
74512;SDS011;62992;52.052;8.550;2022-12-17T09:31:44;34.63;;;15.32;;
74512;SDS011;62992;52.052;8.550;2022-12-17T09:34:54;33.10;;;16.25;;
74512;SDS011;62992;52.052;8.550;2022-12-17T09:37:56;33.42;;;15.93;;
74512;SDS011;62992;52.052;8.550;2022-12-17T09:41:01;35.47;;;15.10;;
74512;SDS011;62992;52.052;8.550;2022-12-17T09:44:22;37.08;;;14.88;;
74512;SDS011;62992;52.052;8.550;2022-12-17T09:51:12;29.40;;;13.95;;
74512;SDS011;62992;52.052;8.550;2022-12-17T10:00:44;43.75;;;17.95;;
74512;SDS011;62992;52.052;8.550;2022-12-17T10:03:47;45.58;;;17.65;;
74512;SDS011;62992;52.052;8.550;2022-12-17T10:06:50;39.15;;;16.85;;
74512;SDS011;62992;52.052;8.550;2022-12-17T10:09:53;36.58;;;17.00;;
74512;SDS011;62992;52.052;8.550;2022-12-17T10:13:01;45.35;;;18.38;;
74512;SDS011;62992;52.052;8.550;2022-12-17T10:16:17;36.85;;;15.98;;
74512;SDS011;62992;52.052;8.550;2022-12-17T10:19:27;33.75;;;16.38;;
74512;SDS011;62992;52.052;8.550;2022-12-17T10:22:43;34.70;;;17.08;;
74512;SDS011;62992;52.052;8.550;2022-12-17T10:25:50;45.35;;;19.52;;
74512;SDS011;62992;52.052;8.550;2022-12-17T10:29:02;40.15;;;18.15;;
74512;SDS011;62992;52.052;8.550;2022-12-17T10:35:19;35.95;;;15.80;;
74512;SDS011;62992;52.052;8.550;2022-12-17T10:38:38;29.60;;;14.48;;
74512;SDS011;62992;52.052;8.550;2022-12-17T10:41:42;36.50;;;15.70;;
74512;SDS011;62992;52.052;8.550;2022-12-17T10:44:45;30.17;;;14.52;;
74512;SDS011;62992;52.052;8.550;2022-12-17T10:47:48;29.05;;;14.73;;
74512;SDS011;62992;52.052;8.550;2022-12-17T10:50:51;41.63;;;17.30;;
74512;SDS011;62992;52.052;8.550;2022-12-17T10:54:02;32.10;;;15.90;;
74512;SDS011;62992;52.052;8.550;2022-12-17T11:00:35;32.55;;;14.88;;
74512;SDS011;62992;52.052;8.550;2022-12-17T11:06:53;27.17;;;13.82;;
74512;SDS011;62992;52.052;8.550;2022-12-17T11:09:59;29.98;;;15.38;;
74512;SDS011;62992;52.052;8.550;2022-12-17T11:13:11;27.17;;;16.00;;
74512;SDS011;62992;52.052;8.550;2022-12-17T11:16:35;37.13;;;16.20;;
74512;SDS011;62992;52.052;8.550;2022-12-17T11:19:54;27.25;;;14.40;;
74512;SDS011;62992;52.052;8.550;2022-12-17T11:23:02;26.45;;;13.38;;
74512;SDS011;62992;52.052;8.550;2022-12-17T11:26:07;28.40;;;13.23;;
74512;SDS011;62992;52.052;8.550;2022-12-17T11:29:15;33.47;;;13.95;;
74512;SDS011;62992;52.052;8.550;2022-12-17T11:32:27;29.98;;;14.27;;
74512;SDS011;62992;52.052;8.550;2022-12-17T11:36:01;28.38;;;14.63;;
74512;SDS011;62992;52.052;8.550;2022-12-17T11:42:35;26.85;;;15.10;;
74512;SDS011;62992;52.052;8.550;2022-12-17T11:45:54;39.13;;;16.60;;
74512;SDS011;62992;52.052;8.550;2022-12-17T11:53:05;29.55;;;14.75;;
74512;SDS011;62992;52.052;8.550;2022-12-17T11:59:53;29.65;;;13.98;;
74512;SDS011;62992;52.052;8.550;2022-12-17T12:03:27;25.27;;;13.98;;
74512;SDS011;62992;52.052;8.550;2022-12-17T12:07:12;29.10;;;14.57;;
74512;SDS011;62992;52.052;8.550;2022-12-17T12:16:55;26.38;;;13.20;;
74512;SDS011;62992;52.052;8.550;2022-12-17T12:30:29;24.48;;;12.48;;
74512;SDS011;62992;52.052;8.550;2022-12-17T12:33:52;24.48;;;12.43;;
74512;SDS011;62992;52.052;8.550;2022-12-17T12:36:59;23.38;;;12.45;;
74512;SDS011;62992;52.052;8.550;2022-12-17T12:40:23;28.13;;;13.38;;
74512;SDS011;62992;52.052;8.550;2022-12-17T12:43:41;24.83;;;12.65;;
74512;SDS011;62992;52.052;8.550;2022-12-17T12:46:52;25.85;;;14.30;;
74512;SDS011;62992;52.052;8.550;2022-12-17T12:50:14;33.38;;;14.98;;
74512;SDS011;62992;52.052;8.550;2022-12-17T12:53:22;27.08;;;14.35;;
74512;SDS011;62992;52.052;8.550;2022-12-17T12:56:25;29.40;;;15.60;;
74512;SDS011;62992;52.052;8.550;2022-12-17T12:59:32;30.02;;;16.15;;
74512;SDS011;62992;52.052;8.550;2022-12-17T13:02:36;30.88;;;16.50;;
74512;SDS011;62992;52.052;8.550;2022-12-17T13:05:39;29.83;;;14.93;;
74512;SDS011;62992;52.052;8.550;2022-12-17T13:08:27;26.65;;;14.10;;
74512;SDS011;62992;52.052;8.550;2022-12-17T13:11:24;26.67;;;14.10;;
74512;SDS011;62992;52.052;8.550;2022-12-17T13:14:16;24.33;;;12.25;;
74512;SDS011;62992;52.052;8.550;2022-12-17T13:20:03;24.88;;;13.40;;
74512;SDS011;62992;52.052;8.550;2022-12-17T13:23:15;23.05;;;12.65;;
74512;SDS011;62992;52.052;8.550;2022-12-17T13:32:05;24.35;;;11.48;;
74512;SDS011;62992;52.052;8.550;2022-12-17T13:41:19;25.80;;;12.60;;
74512;SDS011;62992;52.052;8.550;2022-12-17T13:44:22;25.27;;;12.52;;
74512;SDS011;62992;52.052;8.550;2022-12-17T13:47:28;25.00;;;12.45;;
74512;SDS011;62992;52.052;8.550;2022-12-17T13:50:19;24.48;;;13.25;;
74512;SDS011;62992;52.052;8.550;2022-12-17T13:53:10;24.92;;;13.18;;
74512;SDS011;62992;52.052;8.550;2022-12-17T13:55:56;23.75;;;13.05;;
74512;SDS011;62992;52.052;8.550;2022-12-17T13:58:41;23.75;;;13.02;;
74512;SDS011;62992;52.052;8.550;2022-12-17T14:01:25;21.08;;;12.23;;
74512;SDS011;62992;52.052;8.550;2022-12-17T14:04:17;24.77;;;13.80;;
74512;SDS011;62992;52.052;8.550;2022-12-17T14:07:12;24.75;;;12.18;;
74512;SDS011;62992;52.052;8.550;2022-12-17T14:09:56;32.58;;;13.15;;
74512;SDS011;62992;52.052;8.550;2022-12-17T14:12:40;24.95;;;13.65;;
74512;SDS011;62992;52.052;8.550;2022-12-17T14:15:25;28.67;;;14.45;;
74512;SDS011;62992;52.052;8.550;2022-12-17T14:18:13;25.90;;;13.05;;
74512;SDS011;62992;52.052;8.550;2022-12-17T14:21:01;28.67;;;13.45;;
74512;SDS011;62992;52.052;8.550;2022-12-17T14:23:45;26.70;;;14.00;;
74512;SDS011;62992;52.052;8.550;2022-12-17T14:26:31;27.10;;;12.85;;
74512;SDS011;62992;52.052;8.550;2022-12-17T14:29:20;26.50;;;12.93;;
74512;SDS011;62992;52.052;8.550;2022-12-17T14:32:21;28.95;;;13.63;;
74512;SDS011;62992;52.052;8.550;2022-12-17T14:35:21;25.25;;;12.60;;
74512;SDS011;62992;52.052;8.550;2022-12-17T14:38:17;24.55;;;13.05;;
74512;SDS011;62992;52.052;8.550;2022-12-17T14:41:03;22.52;;;12.68;;
74512;SDS011;62992;52.052;8.550;2022-12-17T14:44:18;24.83;;;12.30;;
74512;SDS011;62992;52.052;8.550;2022-12-17T14:47:26;29.33;;;13.55;;
74512;SDS011;62992;52.052;8.550;2022-12-17T14:52:55;23.27;;;11.60;;
74512;SDS011;62992;52.052;8.550;2022-12-17T14:55:52;26.75;;;12.15;;
74512;SDS011;62992;52.052;8.550;2022-12-17T14:58:44;22.00;;;11.10;;
74512;SDS011;62992;52.052;8.550;2022-12-17T15:01:28;25.52;;;13.50;;
74512;SDS011;62992;52.052;8.550;2022-12-17T15:04:13;27.60;;;14.20;;
74512;SDS011;62992;52.052;8.550;2022-12-17T15:06:59;31.98;;;15.27;;
74512;SDS011;62992;52.052;8.550;2022-12-17T15:09:43;31.40;;;14.90;;
74512;SDS011;62992;52.052;8.550;2022-12-17T15:12:28;33.00;;;16.02;;
74512;SDS011;62992;52.052;8.550;2022-12-17T15:15:13;25.50;;;13.90;;
74512;SDS011;62992;52.052;8.550;2022-12-17T15:17:58;28.95;;;14.45;;
74512;SDS011;62992;52.052;8.550;2022-12-17T15:20:42;26.52;;;13.98;;
74512;SDS011;62992;52.052;8.550;2022-12-17T15:23:26;31.52;;;15.02;;
74512;SDS011;62992;52.052;8.550;2022-12-17T15:26:11;29.35;;;14.55;;
74512;SDS011;62992;52.052;8.550;2022-12-17T15:29:00;33.63;;;16.92;;
74512;SDS011;62992;52.052;8.550;2022-12-17T15:31:44;35.37;;;17.07;;
74512;SDS011;62992;52.052;8.550;2022-12-17T15:34:28;34.67;;;16.20;;
74512;SDS011;62992;52.052;8.550;2022-12-17T15:37:13;36.83;;;18.45;;
74512;SDS011;62992;52.052;8.550;2022-12-17T15:39:58;34.90;;;18.67;;
74512;SDS011;62992;52.052;8.550;2022-12-17T15:42:42;43.97;;;19.20;;
74512;SDS011;62992;52.052;8.550;2022-12-17T15:45:48;37.88;;;18.00;;
74512;SDS011;62992;52.052;8.550;2022-12-17T15:48:34;36.25;;;17.85;;
74512;SDS011;62992;52.052;8.550;2022-12-17T15:51:18;39.30;;;18.67;;
74512;SDS011;62992;52.052;8.550;2022-12-17T15:54:03;37.15;;;17.85;;
74512;SDS011;62992;52.052;8.550;2022-12-17T15:56:51;35.45;;;16.98;;
74512;SDS011;62992;52.052;8.550;2022-12-17T15:59:36;36.45;;;18.02;;
74512;SDS011;62992;52.052;8.550;2022-12-17T16:02:20;34.70;;;17.60;;
74512;SDS011;62992;52.052;8.550;2022-12-17T16:05:04;37.10;;;18.08;;
74512;SDS011;62992;52.052;8.550;2022-12-17T16:07:49;44.40;;;18.38;;
74512;SDS011;62992;52.052;8.550;2022-12-17T16:10:34;41.08;;;16.92;;
74512;SDS011;62992;52.052;8.550;2022-12-17T16:13:19;33.10;;;16.42;;
74512;SDS011;62992;52.052;8.550;2022-12-17T16:16:03;34.28;;;16.63;;
74512;SDS011;62992;52.052;8.550;2022-12-17T16:18:48;33.67;;;17.65;;
74512;SDS011;62992;52.052;8.550;2022-12-17T16:21:32;43.05;;;18.25;;
74512;SDS011;62992;52.052;8.550;2022-12-17T16:24:17;45.40;;;20.55;;
74512;SDS011;62992;52.052;8.550;2022-12-17T16:27:01;40.63;;;20.63;;
74512;SDS011;62992;52.052;8.550;2022-12-17T16:29:46;54.95;;;24.40;;
74512;SDS011;62992;52.052;8.550;2022-12-17T16:32:30;65.68;;;24.42;;
74512;SDS011;62992;52.052;8.550;2022-12-17T16:35:15;60.50;;;23.43;;
74512;SDS011;62992;52.052;8.550;2022-12-17T16:38:00;50.60;;;21.75;;
74512;SDS011;62992;52.052;8.550;2022-12-17T16:40:45;51.42;;;20.77;;
74512;SDS011;62992;52.052;8.550;2022-12-17T16:43:31;47.90;;;21.65;;
74512;SDS011;62992;52.052;8.550;2022-12-17T16:49:18;40.83;;;18.52;;
74512;SDS011;62992;52.052;8.550;2022-12-17T16:52:04;39.20;;;18.92;;
74512;SDS011;62992;52.052;8.550;2022-12-17T16:54:48;36.35;;;17.90;;
74512;SDS011;62992;52.052;8.550;2022-12-17T16:57:32;41.03;;;20.02;;
74512;SDS011;62992;52.052;8.550;2022-12-17T17:00:16;38.15;;;18.75;;
74512;SDS011;62992;52.052;8.550;2022-12-17T17:03:01;38.38;;;20.17;;
74512;SDS011;62992;52.052;8.550;2022-12-17T17:05:45;40.05;;;20.90;;
74512;SDS011;62992;52.052;8.550;2022-12-17T17:08:29;41.25;;;19.63;;
74512;SDS011;62992;52.052;8.550;2022-12-17T17:11:20;46.72;;;21.83;;
74512;SDS011;62992;52.052;8.550;2022-12-17T17:14:06;48.08;;;22.40;;
74512;SDS011;62992;52.052;8.550;2022-12-17T17:16:51;48.92;;;23.23;;
74512;SDS011;62992;52.052;8.550;2022-12-17T17:19:35;44.72;;;23.23;;
74512;SDS011;62992;52.052;8.550;2022-12-17T17:22:20;46.65;;;24.00;;
74512;SDS011;62992;52.052;8.550;2022-12-17T17:25:04;42.30;;;21.08;;
74512;SDS011;62992;52.052;8.550;2022-12-17T17:27:49;45.20;;;24.10;;
74512;SDS011;62992;52.052;8.550;2022-12-17T17:30:33;51.03;;;23.08;;
74512;SDS011;62992;52.052;8.550;2022-12-17T17:33:17;45.65;;;22.15;;
74512;SDS011;62992;52.052;8.550;2022-12-17T17:36:12;41.75;;;22.60;;
74512;SDS011;62992;52.052;8.550;2022-12-17T17:39:04;38.72;;;20.48;;
74512;SDS011;62992;52.052;8.550;2022-12-17T17:41:49;49.42;;;22.88;;
74512;SDS011;62992;52.052;8.550;2022-12-17T17:44:33;37.25;;;20.45;;
74512;SDS011;62992;52.052;8.550;2022-12-17T17:47:17;45.92;;;23.42;;
74512;SDS011;62992;52.052;8.550;2022-12-17T17:50:01;44.97;;;23.75;;
74512;SDS011;62992;52.052;8.550;2022-12-17T17:52:45;46.50;;;21.63;;
74512;SDS011;62992;52.052;8.550;2022-12-17T17:55:32;45.33;;;22.92;;
74512;SDS011;62992;52.052;8.550;2022-12-17T17:58:17;46.70;;;22.40;;
74512;SDS011;62992;52.052;8.550;2022-12-17T18:01:06;48.58;;;22.73;;
74512;SDS011;62992;52.052;8.550;2022-12-17T18:03:51;46.47;;;23.17;;
74512;SDS011;62992;52.052;8.550;2022-12-17T18:06:38;49.10;;;22.55;;
74512;SDS011;62992;52.052;8.550;2022-12-17T18:09:23;41.33;;;21.25;;
74512;SDS011;62992;52.052;8.550;2022-12-17T18:12:07;43.30;;;22.23;;
74512;SDS011;62992;52.052;8.550;2022-12-17T18:15:21;45.28;;;21.30;;
74512;SDS011;62992;52.052;8.550;2022-12-17T18:18:05;56.08;;;26.55;;
74512;SDS011;62992;52.052;8.550;2022-12-17T18:20:49;42.55;;;22.02;;
74512;SDS011;62992;52.052;8.550;2022-12-17T18:23:49;57.95;;;25.83;;
74512;SDS011;62992;52.052;8.550;2022-12-17T18:26:39;53.22;;;25.52;;
74512;SDS011;62992;52.052;8.550;2022-12-17T18:29:25;46.42;;;24.52;;
74512;SDS011;62992;52.052;8.550;2022-12-17T18:32:11;41.97;;;23.17;;
74512;SDS011;62992;52.052;8.550;2022-12-17T18:34:55;55.58;;;25.98;;
74512;SDS011;62992;52.052;8.550;2022-12-17T18:37:39;44.95;;;24.25;;
74512;SDS011;62992;52.052;8.550;2022-12-17T18:40:24;44.60;;;23.92;;
74512;SDS011;62992;52.052;8.550;2022-12-17T18:43:08;46.95;;;24.42;;
74512;SDS011;62992;52.052;8.550;2022-12-17T18:46:07;48.95;;;23.70;;
74512;SDS011;62992;52.052;8.550;2022-12-17T18:48:52;48.75;;;25.10;;